sensor_id;sensor_type;location;lat;lon;timestamp;temperature;humidity
61117;DHT22;47002;50.856;6.580;2022-07-29T00:01:52;17.60;55.50
61117;DHT22;47002;50.856;6.580;2022-07-29T00:04:19;17.60;55.50
61117;DHT22;47002;50.856;6.580;2022-07-29T00:06:45;17.50;55.50
61117;DHT22;47002;50.856;6.580;2022-07-29T00:09:11;17.50;55.60
61117;DHT22;47002;50.856;6.580;2022-07-29T00:11:36;17.50;55.90
61117;DHT22;47002;50.856;6.580;2022-07-29T00:14:02;17.50;56.00
61117;DHT22;47002;50.856;6.580;2022-07-29T00:16:28;17.40;56.20
61117;DHT22;47002;50.856;6.580;2022-07-29T00:18:54;17.40;56.20
61117;DHT22;47002;50.856;6.580;2022-07-29T00:21:22;17.40;56.40
61117;DHT22;47002;50.856;6.580;2022-07-29T00:23:47;17.40;56.60
61117;DHT22;47002;50.856;6.580;2022-07-29T00:26:13;17.30;56.60
61117;DHT22;47002;50.856;6.580;2022-07-29T00:28:39;17.30;56.60
61117;DHT22;47002;50.856;6.580;2022-07-29T00:31:04;17.30;56.80
61117;DHT22;47002;50.856;6.580;2022-07-29T00:33:30;17.30;56.80
61117;DHT22;47002;50.856;6.580;2022-07-29T00:35:56;17.20;56.90
61117;DHT22;47002;50.856;6.580;2022-07-29T00:38:23;17.20;57.10
61117;DHT22;47002;50.856;6.580;2022-07-29T00:40:49;17.20;57.40
61117;DHT22;47002;50.856;6.580;2022-07-29T00:43:15;17.10;57.30
61117;DHT22;47002;50.856;6.580;2022-07-29T00:45:42;17.10;57.40
61117;DHT22;47002;50.856;6.580;2022-07-29T00:48:08;17.10;57.60
61117;DHT22;47002;50.856;6.580;2022-07-29T00:50:34;17.10;57.70
61117;DHT22;47002;50.856;6.580;2022-07-29T00:53:00;17.10;57.90
61117;DHT22;47002;50.856;6.580;2022-07-29T00:55:29;17.00;57.90
61117;DHT22;47002;50.856;6.580;2022-07-29T00:57:55;17.00;58.10
61117;DHT22;47002;50.856;6.580;2022-07-29T01:00:24;16.90;58.40
61117;DHT22;47002;50.856;6.580;2022-07-29T01:02:50;16.90;58.70
61117;DHT22;47002;50.856;6.580;2022-07-29T01:05:17;16.80;58.80
61117;DHT22;47002;50.856;6.580;2022-07-29T01:07:45;16.70;59.80
61117;DHT22;47002;50.856;6.580;2022-07-29T01:10:13;16.70;59.80
61117;DHT22;47002;50.856;6.580;2022-07-29T01:12:43;16.70;60.20
61117;DHT22;47002;50.856;6.580;2022-07-29T01:15:09;16.70;61.40
61117;DHT22;47002;50.856;6.580;2022-07-29T01:17:41;16.60;61.60
61117;DHT22;47002;50.856;6.580;2022-07-29T01:20:10;16.50;61.90
61117;DHT22;47002;50.856;6.580;2022-07-29T01:26:27;16.30;61.90
61117;DHT22;47002;50.856;6.580;2022-07-29T01:29:03;16.30;62.40
61117;DHT22;47002;50.856;6.580;2022-07-29T01:31:35;16.30;62.90
61117;DHT22;47002;50.856;6.580;2022-07-29T01:34:07;16.20;63.00
61117;DHT22;47002;50.856;6.580;2022-07-29T01:36:36;16.20;63.00
61117;DHT22;47002;50.856;6.580;2022-07-29T01:39:10;16.20;63.20
61117;DHT22;47002;50.856;6.580;2022-07-29T01:41:38;16.20;63.20
61117;DHT22;47002;50.856;6.580;2022-07-29T01:44:18;16.20;63.10
61117;DHT22;47002;50.856;6.580;2022-07-29T01:46:49;16.10;62.60
61117;DHT22;47002;50.856;6.580;2022-07-29T01:49:19;16.10;62.40
61117;DHT22;47002;50.856;6.580;2022-07-29T01:51:49;16.10;62.10
61117;DHT22;47002;50.856;6.580;2022-07-29T01:54:20;16.10;61.80
61117;DHT22;47002;50.856;6.580;2022-07-29T01:56:48;16.10;61.60
61117;DHT22;47002;50.856;6.580;2022-07-29T01:59:17;16.10;61.50
61117;DHT22;47002;50.856;6.580;2022-07-29T02:01:44;16.20;61.30
61117;DHT22;47002;50.856;6.580;2022-07-29T02:04:11;16.20;61.40
61117;DHT22;47002;50.856;6.580;2022-07-29T02:06:38;16.20;61.00
61117;DHT22;47002;50.856;6.580;2022-07-29T02:09:07;16.20;61.00
61117;DHT22;47002;50.856;6.580;2022-07-29T02:11:35;16.20;61.10
61117;DHT22;47002;50.856;6.580;2022-07-29T02:14:04;16.20;61.10
61117;DHT22;47002;50.856;6.580;2022-07-29T02:16:33;16.30;61.00
61117;DHT22;47002;50.856;6.580;2022-07-29T02:19:02;16.30;61.00
61117;DHT22;47002;50.856;6.580;2022-07-29T02:21:29;16.30;61.10
61117;DHT22;47002;50.856;6.580;2022-07-29T02:23:59;16.30;61.10
61117;DHT22;47002;50.856;6.580;2022-07-29T02:26:27;16.30;61.20
61117;DHT22;47002;50.856;6.580;2022-07-29T02:28:55;16.20;61.50
61117;DHT22;47002;50.856;6.580;2022-07-29T02:31:24;16.20;61.60
61117;DHT22;47002;50.856;6.580;2022-07-29T02:33:53;16.10;61.80
61117;DHT22;47002;50.856;6.580;2022-07-29T02:36:21;16.10;61.90
61117;DHT22;47002;50.856;6.580;2022-07-29T02:38:48;16.10;62.10
61117;DHT22;47002;50.856;6.580;2022-07-29T02:41:17;16.00;62.30
61117;DHT22;47002;50.856;6.580;2022-07-29T02:43:46;15.90;62.40
61117;DHT22;47002;50.856;6.580;2022-07-29T02:46:15;15.90;62.50
61117;DHT22;47002;50.856;6.580;2022-07-29T02:48:47;15.90;62.30
61117;DHT22;47002;50.856;6.580;2022-07-29T02:51:18;15.90;62.30
61117;DHT22;47002;50.856;6.580;2022-07-29T02:53:49;15.90;62.10
61117;DHT22;47002;50.856;6.580;2022-07-29T02:56:23;15.90;61.90
61117;DHT22;47002;50.856;6.580;2022-07-29T02:58:55;15.90;61.60
61117;DHT22;47002;50.856;6.580;2022-07-29T03:01:23;16.00;60.90
61117;DHT22;47002;50.856;6.580;2022-07-29T03:03:52;16.00;60.90
61117;DHT22;47002;50.856;6.580;2022-07-29T03:06:21;16.00;60.90
61117;DHT22;47002;50.856;6.580;2022-07-29T03:08:48;16.00;61.20
61117;DHT22;47002;50.856;6.580;2022-07-29T03:11:14;16.00;61.30
61117;DHT22;47002;50.856;6.580;2022-07-29T03:13:41;16.00;61.50
61117;DHT22;47002;50.856;6.580;2022-07-29T03:16:09;15.90;61.70
61117;DHT22;47002;50.856;6.580;2022-07-29T03:18:36;15.90;62.00
61117;DHT22;47002;50.856;6.580;2022-07-29T03:21:03;15.80;62.20
61117;DHT22;47002;50.856;6.580;2022-07-29T03:23:30;15.80;62.30
61117;DHT22;47002;50.856;6.580;2022-07-29T03:25:56;15.80;62.50
61117;DHT22;47002;50.856;6.580;2022-07-29T03:28:22;15.80;62.70
61117;DHT22;47002;50.856;6.580;2022-07-29T03:30:48;15.80;62.80
61117;DHT22;47002;50.856;6.580;2022-07-29T03:33:13;15.80;63.00
61117;DHT22;47002;50.856;6.580;2022-07-29T03:35:39;15.70;63.10
61117;DHT22;47002;50.856;6.580;2022-07-29T03:38:05;15.80;63.20
61117;DHT22;47002;50.856;6.580;2022-07-29T03:40:35;15.80;63.30
61117;DHT22;47002;50.856;6.580;2022-07-29T03:43:03;15.70;63.40
61117;DHT22;47002;50.856;6.580;2022-07-29T03:45:32;15.70;63.60
61117;DHT22;47002;50.856;6.580;2022-07-29T03:48:02;15.70;63.30
61117;DHT22;47002;50.856;6.580;2022-07-29T03:50:30;15.70;63.40
61117;DHT22;47002;50.856;6.580;2022-07-29T03:52:57;15.70;63.60
61117;DHT22;47002;50.856;6.580;2022-07-29T03:55:23;15.60;63.80
61117;DHT22;47002;50.856;6.580;2022-07-29T03:57:51;15.60;64.00
61117;DHT22;47002;50.856;6.580;2022-07-29T04:00:17;15.60;64.20
61117;DHT22;47002;50.856;6.580;2022-07-29T04:02:43;15.50;64.40
61117;DHT22;47002;50.856;6.580;2022-07-29T04:05:12;15.50;64.40
61117;DHT22;47002;50.856;6.580;2022-07-29T04:07:38;15.40;64.50
61117;DHT22;47002;50.856;6.580;2022-07-29T04:10:04;15.40;64.60
61117;DHT22;47002;50.856;6.580;2022-07-29T04:12:30;15.30;64.80
61117;DHT22;47002;50.856;6.580;2022-07-29T04:14:57;15.30;64.90
61117;DHT22;47002;50.856;6.580;2022-07-29T04:17:23;15.30;65.20
61117;DHT22;47002;50.856;6.580;2022-07-29T04:19:49;15.30;65.30
61117;DHT22;47002;50.856;6.580;2022-07-29T04:22:14;15.30;65.50
61117;DHT22;47002;50.856;6.580;2022-07-29T04:24:40;15.20;65.70
61117;DHT22;47002;50.856;6.580;2022-07-29T04:27:06;15.20;65.90
61117;DHT22;47002;50.856;6.580;2022-07-29T04:29:31;15.20;65.90
61117;DHT22;47002;50.856;6.580;2022-07-29T04:31:58;15.20;66.30
61117;DHT22;47002;50.856;6.580;2022-07-29T04:34:24;15.20;66.40
61117;DHT22;47002;50.856;6.580;2022-07-29T04:36:50;15.20;66.70
61117;DHT22;47002;50.856;6.580;2022-07-29T04:39:15;15.20;67.10
61117;DHT22;47002;50.856;6.580;2022-07-29T04:41:41;15.10;67.70
61117;DHT22;47002;50.856;6.580;2022-07-29T04:44:07;15.10;67.60
61117;DHT22;47002;50.856;6.580;2022-07-29T04:46:33;15.10;67.80
61117;DHT22;47002;50.856;6.580;2022-07-29T04:49:00;15.10;68.30
61117;DHT22;47002;50.856;6.580;2022-07-29T04:51:25;15.10;68.30
61117;DHT22;47002;50.856;6.580;2022-07-29T04:53:51;15.10;68.40
61117;DHT22;47002;50.856;6.580;2022-07-29T04:56:17;15.10;68.50
61117;DHT22;47002;50.856;6.580;2022-07-29T04:58:42;15.00;68.80
61117;DHT22;47002;50.856;6.580;2022-07-29T05:01:08;15.00;69.10
61117;DHT22;47002;50.856;6.580;2022-07-29T05:03:34;15.00;69.30
61117;DHT22;47002;50.856;6.580;2022-07-29T05:06:01;15.00;69.40
61117;DHT22;47002;50.856;6.580;2022-07-29T05:08:26;15.00;69.50
61117;DHT22;47002;50.856;6.580;2022-07-29T05:10:52;15.00;69.70
61117;DHT22;47002;50.856;6.580;2022-07-29T05:13:18;15.00;69.60
61117;DHT22;47002;50.856;6.580;2022-07-29T05:15:43;15.10;69.50
61117;DHT22;47002;50.856;6.580;2022-07-29T05:18:09;15.10;69.60
61117;DHT22;47002;50.856;6.580;2022-07-29T05:20:35;15.10;69.70
61117;DHT22;47002;50.856;6.580;2022-07-29T05:23:02;15.10;70.00
61117;DHT22;47002;50.856;6.580;2022-07-29T05:25:29;15.10;70.10
61117;DHT22;47002;50.856;6.580;2022-07-29T05:27:55;15.10;70.10
61117;DHT22;47002;50.856;6.580;2022-07-29T05:30:21;15.00;70.40
61117;DHT22;47002;50.856;6.580;2022-07-29T05:32:47;15.00;70.90
61117;DHT22;47002;50.856;6.580;2022-07-29T05:35:13;14.90;71.20
61117;DHT22;47002;50.856;6.580;2022-07-29T05:37:39;14.90;71.30
61117;DHT22;47002;50.856;6.580;2022-07-29T05:40:08;14.90;71.10
61117;DHT22;47002;50.856;6.580;2022-07-29T05:42:34;14.90;70.80
61117;DHT22;47002;50.856;6.580;2022-07-29T05:45:00;15.00;70.60
61117;DHT22;47002;50.856;6.580;2022-07-29T05:47:25;15.00;70.30
61117;DHT22;47002;50.856;6.580;2022-07-29T05:49:51;15.00;70.20
61117;DHT22;47002;50.856;6.580;2022-07-29T05:52:17;15.10;70.00
61117;DHT22;47002;50.856;6.580;2022-07-29T05:54:43;15.10;70.10
61117;DHT22;47002;50.856;6.580;2022-07-29T05:57:15;15.10;70.20
61117;DHT22;47002;50.856;6.580;2022-07-29T05:59:41;15.20;70.50
61117;DHT22;47002;50.856;6.580;2022-07-29T06:02:07;15.20;71.90
61117;DHT22;47002;50.856;6.580;2022-07-29T06:04:33;15.20;72.80
61117;DHT22;47002;50.856;6.580;2022-07-29T06:06:58;15.30;73.20
61117;DHT22;47002;50.856;6.580;2022-07-29T06:09:24;15.30;74.60
61117;DHT22;47002;50.856;6.580;2022-07-29T06:11:50;15.30;74.10
61117;DHT22;47002;50.856;6.580;2022-07-29T06:14:17;15.30;74.70
61117;DHT22;47002;50.856;6.580;2022-07-29T06:16:42;15.40;75.70
61117;DHT22;47002;50.856;6.580;2022-07-29T06:19:08;15.40;75.80
61117;DHT22;47002;50.856;6.580;2022-07-29T06:21:34;15.40;76.10
61117;DHT22;47002;50.856;6.580;2022-07-29T06:23:59;15.40;76.10
61117;DHT22;47002;50.856;6.580;2022-07-29T06:26:25;15.40;75.40
61117;DHT22;47002;50.856;6.580;2022-07-29T06:28:51;15.40;74.70
61117;DHT22;47002;50.856;6.580;2022-07-29T06:31:18;15.40;74.40
61117;DHT22;47002;50.856;6.580;2022-07-29T06:33:44;15.30;74.40
61117;DHT22;47002;50.856;6.580;2022-07-29T06:36:09;15.20;74.50
61117;DHT22;47002;50.856;6.580;2022-07-29T06:38:35;15.10;74.90
61117;DHT22;47002;50.856;6.580;2022-07-29T06:41:01;15.10;75.30
61117;DHT22;47002;50.856;6.580;2022-07-29T06:43:28;15.00;75.40
61117;DHT22;47002;50.856;6.580;2022-07-29T06:45:53;14.90;76.00
61117;DHT22;47002;50.856;6.580;2022-07-29T06:48:20;14.90;76.40
61117;DHT22;47002;50.856;6.580;2022-07-29T06:50:46;14.80;76.50
61117;DHT22;47002;50.856;6.580;2022-07-29T06:53:12;14.80;76.90
61117;DHT22;47002;50.856;6.580;2022-07-29T06:55:38;14.70;77.50
61117;DHT22;47002;50.856;6.580;2022-07-29T06:58:03;14.80;77.70
61117;DHT22;47002;50.856;6.580;2022-07-29T07:00:29;14.80;77.80
61117;DHT22;47002;50.856;6.580;2022-07-29T07:02:55;14.90;78.00
61117;DHT22;47002;50.856;6.580;2022-07-29T07:05:22;15.00;78.40
61117;DHT22;47002;50.856;6.580;2022-07-29T07:07:48;15.10;78.30
61117;DHT22;47002;50.856;6.580;2022-07-29T07:10:13;15.20;78.10
61117;DHT22;47002;50.856;6.580;2022-07-29T07:12:39;15.30;77.90
61117;DHT22;47002;50.856;6.580;2022-07-29T07:15:06;15.40;78.10
61117;DHT22;47002;50.856;6.580;2022-07-29T07:17:32;15.50;78.20
61117;DHT22;47002;50.856;6.580;2022-07-29T07:19:57;15.60;78.60
61117;DHT22;47002;50.856;6.580;2022-07-29T07:22:24;15.60;79.20
61117;DHT22;47002;50.856;6.580;2022-07-29T07:24:50;15.70;79.30
61117;DHT22;47002;50.856;6.580;2022-07-29T07:27:16;15.80;78.80
61117;DHT22;47002;50.856;6.580;2022-07-29T07:29:41;15.90;78.90
61117;DHT22;47002;50.856;6.580;2022-07-29T07:32:07;16.00;78.90
61117;DHT22;47002;50.856;6.580;2022-07-29T07:34:33;16.10;78.00
61117;DHT22;47002;50.856;6.580;2022-07-29T07:36:59;16.10;77.20
61117;DHT22;47002;50.856;6.580;2022-07-29T07:39:26;16.20;77.10
61117;DHT22;47002;50.856;6.580;2022-07-29T07:41:51;16.30;76.80
61117;DHT22;47002;50.856;6.580;2022-07-29T07:44:17;16.40;76.50
61117;DHT22;47002;50.856;6.580;2022-07-29T07:46:43;16.50;76.20
61117;DHT22;47002;50.856;6.580;2022-07-29T07:49:08;16.60;75.80
61117;DHT22;47002;50.856;6.580;2022-07-29T07:51:34;16.60;75.20
61117;DHT22;47002;50.856;6.580;2022-07-29T07:54:00;16.60;74.50
61117;DHT22;47002;50.856;6.580;2022-07-29T07:56:27;16.60;75.10
61117;DHT22;47002;50.856;6.580;2022-07-29T07:58:52;16.60;75.60
61117;DHT22;47002;50.856;6.580;2022-07-29T08:01:18;16.70;74.80
61117;DHT22;47002;50.856;6.580;2022-07-29T08:03:44;16.50;74.80
61117;DHT22;47002;50.856;6.580;2022-07-29T08:06:10;16.40;74.40
61117;DHT22;47002;50.856;6.580;2022-07-29T08:08:35;16.20;74.90
61117;DHT22;47002;50.856;6.580;2022-07-29T08:11:01;16.10;75.50
61117;DHT22;47002;50.856;6.580;2022-07-29T08:13:28;15.90;76.80
61117;DHT22;47002;50.856;6.580;2022-07-29T08:15:54;15.70;77.60
61117;DHT22;47002;50.856;6.580;2022-07-29T08:18:20;15.60;77.90
61117;DHT22;47002;50.856;6.580;2022-07-29T08:20:46;15.60;78.00
61117;DHT22;47002;50.856;6.580;2022-07-29T08:23:12;15.70;77.90
61117;DHT22;47002;50.856;6.580;2022-07-29T08:25:37;15.80;77.90
61117;DHT22;47002;50.856;6.580;2022-07-29T08:28:03;16.00;77.60
61117;DHT22;47002;50.856;6.580;2022-07-29T08:30:30;16.00;76.20
61117;DHT22;47002;50.856;6.580;2022-07-29T08:32:56;16.10;76.20
61117;DHT22;47002;50.856;6.580;2022-07-29T08:35:23;16.10;73.90
61117;DHT22;47002;50.856;6.580;2022-07-29T08:37:48;16.30;73.80
61117;DHT22;47002;50.856;6.580;2022-07-29T08:40:14;16.40;73.50
61117;DHT22;47002;50.856;6.580;2022-07-29T08:42:40;16.60;74.10
61117;DHT22;47002;50.856;6.580;2022-07-29T08:45:07;16.80;72.20
61117;DHT22;47002;50.856;6.580;2022-07-29T08:47:34;17.10;71.70
61117;DHT22;47002;50.856;6.580;2022-07-29T08:50:00;17.30;71.40
61117;DHT22;47002;50.856;6.580;2022-07-29T08:52:26;17.50;70.60
61117;DHT22;47002;50.856;6.580;2022-07-29T08:54:54;17.70;68.80
61117;DHT22;47002;50.856;6.580;2022-07-29T08:57:20;17.80;67.90
61117;DHT22;47002;50.856;6.580;2022-07-29T08:59:47;18.00;67.30
61117;DHT22;47002;50.856;6.580;2022-07-29T09:02:19;18.10;65.40
61117;DHT22;47002;50.856;6.580;2022-07-29T09:04:47;18.20;66.60
61117;DHT22;47002;50.856;6.580;2022-07-29T09:07:15;18.40;67.30
61117;DHT22;47002;50.856;6.580;2022-07-29T09:09:41;18.60;64.70
61117;DHT22;47002;50.856;6.580;2022-07-29T09:12:07;18.80;64.20
61117;DHT22;47002;50.856;6.580;2022-07-29T09:14:33;19.00;64.00
61117;DHT22;47002;50.856;6.580;2022-07-29T09:16:58;19.20;63.40
61117;DHT22;47002;50.856;6.580;2022-07-29T09:19:26;19.40;61.30
61117;DHT22;47002;50.856;6.580;2022-07-29T09:21:54;19.60;61.10
61117;DHT22;47002;50.856;6.580;2022-07-29T09:24:20;19.60;60.80
61117;DHT22;47002;50.856;6.580;2022-07-29T09:26:46;19.70;60.30
61117;DHT22;47002;50.856;6.580;2022-07-29T09:29:13;19.70;60.30
61117;DHT22;47002;50.856;6.580;2022-07-29T09:31:41;19.80;59.60
61117;DHT22;47002;50.856;6.580;2022-07-29T09:34:11;20.00;58.70
61117;DHT22;47002;50.856;6.580;2022-07-29T09:36:39;20.40;58.30
61117;DHT22;47002;50.856;6.580;2022-07-29T09:39:06;20.70;56.60
61117;DHT22;47002;50.856;6.580;2022-07-29T09:41:44;20.80;56.30
61117;DHT22;47002;50.856;6.580;2022-07-29T09:44:10;20.80;56.40
61117;DHT22;47002;50.856;6.580;2022-07-29T09:46:36;20.90;56.10
61117;DHT22;47002;50.856;6.580;2022-07-29T09:49:08;21.00;55.70
61117;DHT22;47002;50.856;6.580;2022-07-29T09:51:35;21.20;54.60
61117;DHT22;47002;50.856;6.580;2022-07-29T09:54:00;21.30;54.30
61117;DHT22;47002;50.856;6.580;2022-07-29T09:56:40;21.40;53.80
61117;DHT22;47002;50.856;6.580;2022-07-29T09:59:06;21.40;54.20
61117;DHT22;47002;50.856;6.580;2022-07-29T10:01:32;21.50;55.60
61117;DHT22;47002;50.856;6.580;2022-07-29T10:03:58;21.50;55.90
61117;DHT22;47002;50.856;6.580;2022-07-29T10:06:23;21.50;56.40
61117;DHT22;47002;50.856;6.580;2022-07-29T10:08:49;21.70;54.90
61117;DHT22;47002;50.856;6.580;2022-07-29T10:11:16;21.80;54.30
61117;DHT22;47002;50.856;6.580;2022-07-29T10:13:46;21.90;53.60
61117;DHT22;47002;50.856;6.580;2022-07-29T10:16:12;21.70;54.30
61117;DHT22;47002;50.856;6.580;2022-07-29T10:18:39;21.40;54.30
61117;DHT22;47002;50.856;6.580;2022-07-29T10:21:05;21.30;54.80
61117;DHT22;47002;50.856;6.580;2022-07-29T10:23:31;21.20;54.20
61117;DHT22;47002;50.856;6.580;2022-07-29T10:25:57;21.30;53.30
61117;DHT22;47002;50.856;6.580;2022-07-29T10:28:23;21.40;53.70
61117;DHT22;47002;50.856;6.580;2022-07-29T10:30:52;21.50;52.30
61117;DHT22;47002;50.856;6.580;2022-07-29T10:33:30;21.40;52.10
61117;DHT22;47002;50.856;6.580;2022-07-29T10:36:19;21.50;52.50
61117;DHT22;47002;50.856;6.580;2022-07-29T10:38:53;21.50;51.90
61117;DHT22;47002;50.856;6.580;2022-07-29T10:44:16;21.40;52.30
61117;DHT22;47002;50.856;6.580;2022-07-29T10:46:44;21.40;50.70
61117;DHT22;47002;50.856;6.580;2022-07-29T10:49:12;21.50;50.20
61117;DHT22;47002;50.856;6.580;2022-07-29T10:51:55;21.60;49.90
61117;DHT22;47002;50.856;6.580;2022-07-29T10:54:48;21.90;49.70
61117;DHT22;47002;50.856;6.580;2022-07-29T10:57:16;22.00;49.50
61117;DHT22;47002;50.856;6.580;2022-07-29T10:59:43;22.00;49.60
61117;DHT22;47002;50.856;6.580;2022-07-29T11:02:47;22.10;49.90
61117;DHT22;47002;50.856;6.580;2022-07-29T11:05:14;22.30;49.90
61117;DHT22;47002;50.856;6.580;2022-07-29T11:08:20;22.50;51.00
61117;DHT22;47002;50.856;6.580;2022-07-29T11:10:47;22.50;51.90
61117;DHT22;47002;50.856;6.580;2022-07-29T11:13:14;22.40;49.20
61117;DHT22;47002;50.856;6.580;2022-07-29T11:16:00;22.40;51.30
61117;DHT22;47002;50.856;6.580;2022-07-29T11:18:25;22.30;49.90
61117;DHT22;47002;50.856;6.580;2022-07-29T11:20:51;22.20;49.50
61117;DHT22;47002;50.856;6.580;2022-07-29T11:23:19;22.30;49.70
61117;DHT22;47002;50.856;6.580;2022-07-29T11:25:47;22.10;50.70
61117;DHT22;47002;50.856;6.580;2022-07-29T11:28:33;22.30;50.30
61117;DHT22;47002;50.856;6.580;2022-07-29T11:30:59;22.60;47.00
61117;DHT22;47002;50.856;6.580;2022-07-29T11:33:27;22.60;47.20
61117;DHT22;47002;50.856;6.580;2022-07-29T11:36:08;22.60;47.90
61117;DHT22;47002;50.856;6.580;2022-07-29T11:38:34;22.80;47.10
61117;DHT22;47002;50.856;6.580;2022-07-29T11:41:25;23.00;47.40
61117;DHT22;47002;50.856;6.580;2022-07-29T11:43:52;23.20;46.50
61117;DHT22;47002;50.856;6.580;2022-07-29T11:49:20;23.60;46.00
61117;DHT22;47002;50.856;6.580;2022-07-29T11:51:51;24.00;45.60
61117;DHT22;47002;50.856;6.580;2022-07-29T11:54:24;24.20;45.30
61117;DHT22;47002;50.856;6.580;2022-07-29T11:56:51;24.50;44.60
61117;DHT22;47002;50.856;6.580;2022-07-29T11:59:17;24.60;42.50
61117;DHT22;47002;50.856;6.580;2022-07-29T12:01:52;24.60;42.20
61117;DHT22;47002;50.856;6.580;2022-07-29T12:04:18;24.50;42.80
61117;DHT22;47002;50.856;6.580;2022-07-29T12:06:49;24.40;42.30
61117;DHT22;47002;50.856;6.580;2022-07-29T12:09:14;24.10;42.30
61117;DHT22;47002;50.856;6.580;2022-07-29T12:11:40;23.80;42.80
61117;DHT22;47002;50.856;6.580;2022-07-29T12:14:07;23.70;43.30
61117;DHT22;47002;50.856;6.580;2022-07-29T12:16:35;23.70;42.70
61117;DHT22;47002;50.856;6.580;2022-07-29T12:19:02;23.70;43.00
61117;DHT22;47002;50.856;6.580;2022-07-29T12:21:28;23.80;42.90
61117;DHT22;47002;50.856;6.580;2022-07-29T12:23:55;24.10;41.60
61117;DHT22;47002;50.856;6.580;2022-07-29T12:26:21;24.10;41.40
61117;DHT22;47002;50.856;6.580;2022-07-29T12:28:46;24.10;41.10
61117;DHT22;47002;50.856;6.580;2022-07-29T12:31:15;24.20;41.40
61117;DHT22;47002;50.856;6.580;2022-07-29T12:33:41;24.40;41.70
61117;DHT22;47002;50.856;6.580;2022-07-29T12:36:07;24.60;41.20
61117;DHT22;47002;50.856;6.580;2022-07-29T12:38:33;24.70;41.00
61117;DHT22;47002;50.856;6.580;2022-07-29T12:40:59;24.90;41.10
61117;DHT22;47002;50.856;6.580;2022-07-29T12:43:25;24.90;41.20
61117;DHT22;47002;50.856;6.580;2022-07-29T12:45:52;24.90;41.10
61117;DHT22;47002;50.856;6.580;2022-07-29T12:48:33;24.70;41.60
61117;DHT22;47002;50.856;6.580;2022-07-29T12:51:00;24.90;41.00
61117;DHT22;47002;50.856;6.580;2022-07-29T12:53:26;25.00;40.70
61117;DHT22;47002;50.856;6.580;2022-07-29T12:55:53;25.10;40.30
61117;DHT22;47002;50.856;6.580;2022-07-29T12:58:27;25.10;40.20
61117;DHT22;47002;50.856;6.580;2022-07-29T13:01:04;25.20;39.70
61117;DHT22;47002;50.856;6.580;2022-07-29T13:03:49;25.30;39.50
61117;DHT22;47002;50.856;6.580;2022-07-29T13:06:43;25.60;39.20
61117;DHT22;47002;50.856;6.580;2022-07-29T13:09:11;26.00;38.10
61117;DHT22;47002;50.856;6.580;2022-07-29T13:11:39;26.10;37.50
61117;DHT22;47002;50.856;6.580;2022-07-29T13:14:06;26.50;37.60
61117;DHT22;47002;50.856;6.580;2022-07-29T13:16:32;26.90;37.30
61117;DHT22;47002;50.856;6.580;2022-07-29T13:19:10;27.30;36.80
61117;DHT22;47002;50.856;6.580;2022-07-29T13:21:37;27.80;35.80
61117;DHT22;47002;50.856;6.580;2022-07-29T13:24:05;28.10;35.40
61117;DHT22;47002;50.856;6.580;2022-07-29T13:26:31;28.50;35.40
61117;DHT22;47002;50.856;6.580;2022-07-29T13:28:56;29.00;34.30
61117;DHT22;47002;50.856;6.580;2022-07-29T13:31:22;29.40;33.60
61117;DHT22;47002;50.856;6.580;2022-07-29T13:33:48;29.60;32.50
61117;DHT22;47002;50.856;6.580;2022-07-29T13:36:15;29.50;33.20
61117;DHT22;47002;50.856;6.580;2022-07-29T13:38:41;29.70;32.00
61117;DHT22;47002;50.856;6.580;2022-07-29T13:41:06;29.50;32.70
61117;DHT22;47002;50.856;6.580;2022-07-29T13:43:32;29.90;31.80
61117;DHT22;47002;50.856;6.580;2022-07-29T13:45:58;30.10;31.40
61117;DHT22;47002;50.856;6.580;2022-07-29T13:48:23;30.20;31.30
61117;DHT22;47002;50.856;6.580;2022-07-29T13:50:49;30.00;31.50
61117;DHT22;47002;50.856;6.580;2022-07-29T13:53:16;29.90;31.40
61117;DHT22;47002;50.856;6.580;2022-07-29T13:55:42;30.10;30.50
61117;DHT22;47002;50.856;6.580;2022-07-29T13:58:07;29.80;30.90
61117;DHT22;47002;50.856;6.580;2022-07-29T14:00:33;29.70;30.70
61117;DHT22;47002;50.856;6.580;2022-07-29T14:02:59;29.30;31.40
61117;DHT22;47002;50.856;6.580;2022-07-29T14:05:24;29.50;31.50
61117;DHT22;47002;50.856;6.580;2022-07-29T14:07:50;30.10;30.30
61117;DHT22;47002;50.856;6.580;2022-07-29T14:10:17;30.50;29.90
61117;DHT22;47002;50.856;6.580;2022-07-29T14:12:43;30.40;30.00
61117;DHT22;47002;50.856;6.580;2022-07-29T14:15:09;30.00;30.90
61117;DHT22;47002;50.856;6.580;2022-07-29T14:17:34;29.60;31.90
61117;DHT22;47002;50.856;6.580;2022-07-29T14:20:00;29.40;31.70
61117;DHT22;47002;50.856;6.580;2022-07-29T14:22:26;29.60;31.70
61117;DHT22;47002;50.856;6.580;2022-07-29T14:24:52;30.00;30.90
61117;DHT22;47002;50.856;6.580;2022-07-29T14:27:19;30.00;30.10
61117;DHT22;47002;50.856;6.580;2022-07-29T14:29:44;29.70;30.80
61117;DHT22;47002;50.856;6.580;2022-07-29T14:32:10;29.80;30.50
61117;DHT22;47002;50.856;6.580;2022-07-29T14:34:37;30.10;30.10
61117;DHT22;47002;50.856;6.580;2022-07-29T14:37:03;30.30;30.10
61117;DHT22;47002;50.856;6.580;2022-07-29T14:39:29;30.10;30.50
61117;DHT22;47002;50.856;6.580;2022-07-29T14:41:54;30.10;31.10
61117;DHT22;47002;50.856;6.580;2022-07-29T14:44:21;30.40;30.70
61117;DHT22;47002;50.856;6.580;2022-07-29T14:46:47;30.70;30.10
61117;DHT22;47002;50.856;6.580;2022-07-29T14:49:13;30.70;29.40
61117;DHT22;47002;50.856;6.580;2022-07-29T14:51:38;30.90;28.80
61117;DHT22;47002;50.856;6.580;2022-07-29T14:54:04;31.20;27.50
61117;DHT22;47002;50.856;6.580;2022-07-29T14:56:30;31.40;27.30
61117;DHT22;47002;50.856;6.580;2022-07-29T14:58:56;31.60;26.80
61117;DHT22;47002;50.856;6.580;2022-07-29T15:01:23;31.80;27.30
61117;DHT22;47002;50.856;6.580;2022-07-29T15:03:48;32.00;27.20
61117;DHT22;47002;50.856;6.580;2022-07-29T15:06:14;31.80;28.00
61117;DHT22;47002;50.856;6.580;2022-07-29T15:08:40;31.70;27.90
61117;DHT22;47002;50.856;6.580;2022-07-29T15:11:05;31.80;27.50
61117;DHT22;47002;50.856;6.580;2022-07-29T15:13:32;31.70;27.80
61117;DHT22;47002;50.856;6.580;2022-07-29T15:15:58;31.60;27.90
61117;DHT22;47002;50.856;6.580;2022-07-29T15:18:25;31.60;27.90
61117;DHT22;47002;50.856;6.580;2022-07-29T15:20:51;31.70;27.50
61117;DHT22;47002;50.856;6.580;2022-07-29T15:23:16;31.80;27.50
61117;DHT22;47002;50.856;6.580;2022-07-29T15:25:42;32.10;27.30
61117;DHT22;47002;50.856;6.580;2022-07-29T15:28:08;31.90;27.50
61117;DHT22;47002;50.856;6.580;2022-07-29T15:30:34;31.30;27.70
61117;DHT22;47002;50.856;6.580;2022-07-29T15:33:01;31.10;27.70
61117;DHT22;47002;50.856;6.580;2022-07-29T15:35:28;30.50;27.80
61117;DHT22;47002;50.856;6.580;2022-07-29T15:37:54;29.80;29.00
61117;DHT22;47002;50.856;6.580;2022-07-29T15:40:20;29.20;29.70
61117;DHT22;47002;50.856;6.580;2022-07-29T15:42:45;28.70;30.30